Time;durP1;ratioP1;P1;durP2;ratioP2;P2;SDS_P1;SDS_P2;PMS_P1;PMS_P2;Temp;Humidity;BMP_temperature;BMP_pressure;BME280_temperature;BME280_humidity;BME280_pressure;Samples;Min_cycle;Max_cycle;Signal;HPM_P1;HPM_P2
2021/10/23 00:00:57;;;;;;;4.50;2.00;;;;;;;6.22;70.38;99587.98;115058;1192;96409;-74
2021/10/23 00:03:44;;;;;;;2.60;1.90;;;;;;;6.22;70.26;99589.36;114912;1192;137126;-74
2021/10/23 00:06:31;;;;;;;4.00;2.50;;;;;;;6.22;70.48;99597.48;114825;1193;112339;-73
2021/10/23 00:09:18;;;;;;;4.40;2.40;;;;;;;6.21;70.55;99596.98;114895;1192;137972;-74
2021/10/23 00:12:06;;;;;;;2.50;2.00;;;;;;;6.23;70.65;99594.88;114983;1192;108255;-74
2021/10/23 00:14:53;;;;;;;3.60;2.00;;;;;;;6.23;70.90;99595.38;114867;1192;137300;-74
2021/10/23 00:17:39;;;;;;;3.80;2.00;;;;;;;6.22;70.58;99596.98;115064;1193;95872;-73
2021/10/23 00:20:26;;;;;;;4.40;2.00;;;;;;;6.25;70.66;99606.55;114910;1187;137561;-74
2021/10/23 00:23:12;;;;;;;3.70;2.10;;;;;;;6.26;70.66;99608.24;115055;1192;107670;-73
2021/10/23 00:25:59;;;;;;;4.90;2.20;;;;;;;6.27;70.46;99608.74;114896;1192;140551;-73
2021/10/23 00:28:46;;;;;;;4.30;2.50;;;;;;;6.25;70.55;99621.77;115012;1192;96127;-73
2021/10/23 00:31:32;;;;;;;4.30;1.90;;;;;;;6.22;70.55;99627.70;115042;1192;95973;-73
2021/10/23 00:34:20;;;;;;;3.70;2.00;;;;;;;6.23;70.64;99635.45;114936;1192;137710;-73
2021/10/23 00:37:07;;;;;;;3.30;1.90;;;;;;;6.24;70.65;99643.88;115051;1192;108665;-73
2021/10/23 00:39:54;;;;;;;3.80;2.00;;;;;;;6.22;70.66;99643.23;114741;1193;137489;-74
2021/10/23 00:42:40;;;;;;;4.80;2.00;;;;;;;6.25;70.77;99646.95;115039;1192;95993;-74
2021/10/23 00:45:27;;;;;;;3.70;2.00;;;;;;;6.26;70.68;99649.85;114899;1192;138408;-74
2021/10/23 00:48:14;;;;;;;4.00;2.10;;;;;;;6.27;70.38;99649.48;115040;1192;112146;-74
2021/10/23 00:51:01;;;;;;;5.70;2.10;;;;;;;6.28;70.43;99649.98;114976;1192;137306;-74
2021/10/23 00:53:47;;;;;;;4.20;2.00;;;;;;;6.31;70.36;99654.60;115045;1192;108480;-74
2021/10/23 00:56:34;;;;;;;2.10;1.80;;;;;;;6.30;70.28;99657.05;114895;1192;138004;-74
2021/10/23 00:59:21;;;;;;;3.00;1.90;;;;;;;6.27;70.28;99654.83;115021;1192;95662;-74
2021/10/23 01:02:08;;;;;;;4.50;2.00;;;;;;;6.27;70.24;99665.20;114765;1193;137896;-74
2021/10/23 01:04:55;;;;;;;3.70;2.20;;;;;;;6.29;70.10;99667.77;115019;1193;108511;-74
2021/10/23 01:07:43;;;;;;;2.70;1.90;;;;;;;6.31;70.10;99670.83;115016;1193;108580;-74
2021/10/23 01:10:29;;;;;;;;;;;;;;;6.30;70.21;99657.90;114811;1193;137196;-74
2021/10/23 01:13:16;;;;;;;4.10;2.20;;;;;;;6.29;69.99;99663.45;114706;1193;97489;-74
2021/10/23 01:16:03;;;;;;;3.20;2.00;;;;;;;6.30;70.11;99656.52;114060;1193;137369;-74
2021/10/23 01:18:50;;;;;;;6.40;2.40;;;;;;;6.30;69.87;99650.98;114219;1193;108801;-73
2021/10/23 01:21:38;;;;;;;4.10;2.50;;;;;;;6.29;69.84;99662.07;114878;1192;137298;-74
2021/10/23 01:24:25;;;;;;;6.50;2.10;;;;;;;6.28;69.84;99662.59;115022;1192;95992;-74
2021/10/23 01:27:12;;;;;;;3.70;1.90;;;;;;;6.27;69.55;99661.39;114036;1193;137739;-75
2021/10/23 01:29:58;;;;;;;4.20;1.90;;;;;;;6.27;69.66;99662.61;115074;1192;112350;-75
2021/10/23 01:32:45;;;;;;;5.30;2.60;;;;;;;6.25;69.56;99667.66;114244;1192;137851;-74
2021/10/23 01:35:32;;;;;;;4.40;2.20;;;;;;;6.23;69.62;99669.45;115020;1193;108497;-74
2021/10/23 01:38:19;;;;;;;3.90;2.10;;;;;;;6.22;69.63;99674.29;114882;1193;137914;-74
2021/10/23 01:41:06;;;;;;;3.30;2.00;;;;;;;6.23;69.63;99673.93;115066;1193;95848;-74
2021/10/23 01:43:53;;;;;;;;;;;;;;;6.25;69.73;99669.74;115051;1192;112413;-74
2021/10/23 01:46:40;;;;;;;5.30;2.30;;;;;;;6.27;69.77;99678.49;114949;1193;123792;-75
2021/10/23 01:49:27;;;;;;;4.00;2.10;;;;;;;6.26;69.64;99688.19;114081;1193;108436;-74
2021/10/23 01:52:14;;;;;;;4.40;2.00;;;;;;;6.25;69.49;99690.97;114318;1192;137233;-74
2021/10/23 01:55:01;;;;;;;3.20;2.00;;;;;;;6.23;69.80;99689.48;114846;1192;95609;-75
2021/10/23 01:57:48;;;;;;;4.10;2.60;;;;;;;6.23;69.73;99702.05;114832;1193;137906;-75
2021/10/23 02:00:35;;;;;;;6.00;1.90;;;;;;;6.27;69.80;99706.29;114547;1193;107747;-75
2021/10/23 02:03:22;;;;;;;4.20;2.10;;;;;;;6.27;69.88;99711.28;114900;1192;137899;-75
2021/10/23 02:06:10;;;;;;;3.10;2.00;;;;;;;6.25;70.03;99718.61;114891;1192;95889;-75
2021/10/23 02:08:57;;;;;;;4.50;2.20;;;;;;;6.23;70.01;99718.83;114653;1193;137867;-75
2021/10/23 02:11:44;;;;;;;6.30;2.00;;;;;;;6.22;69.93;99725.92;114803;1192;112465;-75
2021/10/23 02:14:31;;;;;;;;;;;;;;;6.22;69.82;99726.43;114433;1192;137866;-75
2021/10/23 02:17:18;;;;;;;5.30;2.10;;;;;;;6.20;69.67;99728.56;115060;1193;107446;-75
2021/10/23 02:20:10;;;;;;;4.30;2.00;;;;;;;6.18;69.70;99735.69;113729;1192;97531;-74
2021/10/23 02:22:56;;;;;;;5.10;1.80;;;;;;;6.17;69.62;99739.67;114878;1193;137327;-75
2021/10/23 02:25:43;;;;;;;2.60;1.60;;;;;;;6.18;69.38;99739.49;115025;1192;113882;-75
2021/10/23 02:28:31;;;;;;;3.80;2.10;;;;;;;6.17;69.40;99749.01;114815;1192;137274;-75
2021/10/23 02:31:18;;;;;;;;;;;;;;;6.16;69.47;99746.60;114400;1193;108699;-73
2021/10/23 02:34:04;;;;;;;4.70;1.60;;;;;;;6.13;69.24;99747.02;114957;1193;124268;-74
2021/10/23 02:36:51;;;;;;;3.40;1.50;;;;;;;6.07;69.36;99739.89;115069;1192;95911;-74
2021/10/23 02:39:38;;;;;;;4.30;1.80;;;;;;;6.02;69.35;99737.40;114716;1193;137915;-74
2021/10/23 02:42:24;;;;;;;5.30;1.60;;;;;;;5.98;69.16;99738.02;114802;1193;108788;-74
2021/10/23 02:45:11;;;;;;;2.90;1.30;;;;;;;5.91;69.38;99741.95;114919;1192;137246;-73
2021/10/23 02:47:58;;;;;;;4.10;1.40;;;;;;;5.82;69.44;99747.98;115031;1193;95861;-74
2021/10/23 02:50:45;;;;;;;3.80;1.60;;;;;;;5.77;69.50;99749.48;114966;1193;138189;-74
2021/10/23 02:53:32;;;;;;;5.20;1.50;;;;;;;5.73;69.55;99753.34;115054;1192;111180;-74
2021/10/23 02:56:19;;;;;;;2.30;1.50;;;;;;;5.69;69.59;99765.16;115041;1192;108708;-74
2021/10/23 02:59:05;;;;;;;4.40;1.80;;;;;;;5.65;69.60;99765.75;114939;1192;136961;-75
2021/10/23 03:01:52;;;;;;;4.40;1.40;;;;;;;5.63;69.70;99768.39;114938;1192;95758;-74
2021/10/23 03:04:41;;;;;;;4.90;1.50;;;;;;;5.62;69.89;99771.16;114747;1192;138017;-74
2021/10/23 03:07:28;;;;;;;5.40;1.60;;;;;;;5.64;69.81;99776.31;115074;1192;112125;-75
2021/10/23 03:10:15;;;;;;;3.60;1.40;;;;;;;5.66;69.82;99779.70;114971;1193;137161;-74
2021/10/23 03:13:01;;;;;;;4.50;1.40;;;;;;;5.68;69.86;99776.55;115053;1193;108774;-74
2021/10/23 03:15:48;;;;;;;3.30;1.60;;;;;;;5.66;69.65;99780.91;114920;1192;137683;-74
2021/10/23 03:18:36;;;;;;;4.50;1.60;;;;;;;5.66;69.72;99786.62;114897;1193;95941;-75
2021/10/23 03:21:23;;;;;;;4.10;1.30;;;;;;;5.64;69.89;99787.17;114153;1192;137249;-74
2021/10/23 03:24:10;;;;;;;4.70;1.70;;;;;;;5.61;69.77;99784.13;113882;1192;108808;-74
2021/10/23 03:26:57;;;;;;;5.50;1.60;;;;;;;5.58;69.71;99784.19;113802;1192;137337;-74
2021/10/23 03:29:45;;;;;;;3.30;1.60;;;;;;;5.54;69.62;99792.34;113897;1193;97512;-74
2021/10/23 03:32:33;;;;;;;4.90;2.20;;;;;;;5.49;69.79;99789.52;114977;1192;95801;-73
2021/10/23 03:35:19;;;;;;;8.00;1.90;;;;;;;5.44;70.00;99789.60;115002;1192;138369;-74
2021/10/23 03:38:06;;;;;;;8.50;2.20;;;;;;;5.40;70.09;99797.96;115069;1192;108815;-74
2021/10/23 03:40:52;;;;;;;6.90;1.70;;;;;;;5.37;70.04;99801.79;114740;1192;137422;-74
2021/10/23 03:43:39;;;;;;;4.10;1.40;;;;;;;5.37;70.06;99800.08;114554;1193;97648;-75
2021/10/23 03:46:25;;;;;;;4.10;1.70;;;;;;;5.37;70.13;99798.88;114793;1192;137607;-75
2021/10/23 03:49:12;;;;;;;3.10;1.50;;;;;;;5.38;70.23;99804.02;115062;1192;110668;-75
2021/10/23 03:52:01;;;;;;;6.40;1.60;;;;;;;5.38;70.40;99804.20;114904;1193;137177;-75
2021/10/23 03:54:48;;;;;;;7.20;1.70;;;;;;;5.39;70.34;99811.95;115023;1192;108863;-75
2021/10/23 03:57:34;;;;;;;4.90;1.70;;;;;;;5.41;70.38;99812.79;114929;1192;137825;-75
2021/10/23 04:00:21;;;;;;;5.50;1.90;;;;;;;5.45;70.60;99813.91;115115;1192;95946;-75
2021/10/23 04:03:07;;;;;;;5.70;2.20;;;;;;;5.50;70.38;99820.03;114961;1187;137778;-75
2021/10/23 04:05:54;;;;;;;7.60;2.10;;;;;;;5.55;70.68;99816.30;114995;1192;106212;-74
2021/10/23 04:08:45;;;;;;;3.40;1.80;;;;;;;5.58;70.41;99824.38;115016;1193;107677;-73
2021/10/23 04:11:31;;;;;;;5.80;1.70;;;;;;;5.61;70.32;99824.14;114932;1192;138138;-74
2021/10/23 04:14:18;;;;;;;4.80;1.90;;;;;;;5.65;70.51;99829.91;115080;1192;95861;-74
2021/10/23 04:17:04;;;;;;;4.50;1.60;;;;;;;5.70;70.25;99831.36;115008;1192;137186;-74
2021/10/23 04:19:50;;;;;;;4.60;2.10;;;;;;;5.71;70.16;99844.27;115095;1192;109389;-74
2021/10/23 04:22:39;;;;;;;5.60;1.90;;;;;;;5.72;70.13;99847.02;114949;1192;137233;-75
2021/10/23 04:25:26;;;;;;;5.50;1.80;;;;;;;5.72;69.97;99859.44;114832;1193;96337;-75
2021/10/23 04:28:13;;;;;;;5.00;1.80;;;;;;;5.75;69.82;99865.27;114717;1193;137634;-74
2021/10/23 04:30:59;;;;;;;7.80;2.20;;;;;;;5.75;69.95;99870.11;115081;1192;111966;-74
2021/10/23 04:33:46;;;;;;;5.80;1.80;;;;;;;5.75;69.89;99876.14;115033;1192;138286;-74
2021/10/23 04:36:32;;;;;;;3.50;1.90;;;;;;;5.76;69.74;99874.57;115069;1193;108436;-74
2021/10/23 04:39:19;;;;;;;6.70;2.00;;;;;;;5.73;69.86;99873.39;113678;1193;137981;-75
2021/10/23 04:42:06;;;;;;;6.70;2.20;;;;;;;5.71;69.77;99876.19;114507;1192;98005;-73
2021/10/23 04:44:53;;;;;;;5.20;1.90;;;;;;;5.70;69.84;99877.08;115039;1192;112447;-74
2021/10/23 04:47:39;;;;;;;5.00;2.10;;;;;;;5.70;69.85;99885.88;114964;1192;137058;-74
2021/10/23 04:50:27;;;;;;;5.90;2.30;;;;;;;5.70;70.17;99887.42;115078;1192;108965;-74
2021/10/23 04:53:13;;;;;;;5.50;2.10;;;;;;;5.72;69.98;99894.45;114946;1193;138710;-74
2021/10/23 04:56:00;;;;;;;6.50;2.50;;;;;;;5.73;69.95;99897.02;115014;1192;96178;-74
2021/10/23 04:58:47;;;;;;;6.90;2.20;;;;;;;5.75;69.91;99900.12;114955;1192;137338;-75
2021/10/23 05:01:34;;;;;;;5.70;2.10;;;;;;;5.80;69.80;99902.27;114810;1193;108939;-75
2021/10/23 05:04:21;;;;;;;6.40;2.30;;;;;;;5.81;69.80;99905.34;114955;1192;138112;-75
2021/10/23 05:07:08;;;;;;;5.30;2.10;;;;;;;5.81;69.86;99909.15;114438;1192;97541;-74
2021/10/23 05:09:55;;;;;;;9.40;2.70;;;;;;;5.83;69.68;99912.73;114976;1192;138616;-75
2021/10/23 05:12:41;;;;;;;6.10;2.40;;;;;;;5.86;69.65;99918.18;115134;1192;112111;-74
2021/10/23 05:15:28;;;;;;;4.10;2.00;;;;;;;5.88;69.55;99920.73;114985;1192;137718;-74
2021/10/23 05:18:15;;;;;;;3.80;2.50;;;;;;;5.89;69.74;99924.53;115055;1192;108717;-75
2021/10/23 05:21:02;;;;;;;5.50;2.00;;;;;;;5.89;69.80;99932.98;115048;1193;95740;-75
2021/10/23 05:23:51;;;;;;;4.60;2.10;;;;;;;5.90;69.69;99937.46;114741;1193;138753;-74
2021/10/23 05:26:38;;;;;;;7.40;2.50;;;;;;;5.92;69.60;99939.51;114857;1192;112100;-74
2021/10/23 05:29:24;;;;;;;6.40;2.40;;;;;;;5.94;69.66;99936.73;114972;1192;137952;-74
2021/10/23 05:32:11;;;;;;;8.80;2.60;;;;;;;5.96;69.80;99936.01;114306;1192;108500;-75
2021/10/23 05:34:58;;;;;;;9.50;2.70;;;;;;;5.96;69.72;99933.58;114780;1193;136993;-75
2021/10/23 05:37:45;;;;;;;7.30;2.90;;;;;;;5.95;69.70;99938.09;115133;1192;95782;-75
2021/10/23 05:40:32;;;;;;;6.10;2.40;;;;;;;5.96;69.93;99947.39;114973;1192;137878;-75
2021/10/23 05:43:19;;;;;;;6.40;2.20;;;;;;;5.96;69.93;99946.87;113864;1192;107220;-76
2021/10/23 05:46:06;;;;;;;8.90;3.30;;;;;;;5.97;70.09;99942.02;113295;1193;137489;-75
2021/10/23 05:48:52;;;;;;;7.20;2.50;;;;;;;5.96;70.10;99948.77;113858;1193;97518;-75
2021/10/23 05:51:39;;;;;;;7.90;2.20;;;;;;;5.95;70.26;99952.93;115030;1192;139327;-75
2021/10/23 05:54:27;;;;;;;8.20;2.60;;;;;;;5.98;70.23;99951.15;113934;1193;112255;-75
2021/10/23 05:57:14;;;;;;;7.30;2.90;;;;;;;5.98;70.03;99950.98;113941;1192;108537;-75
2021/10/23 06:00:06;;;;;;;7.60;2.60;;;;;;;5.98;70.11;99949.24;114712;1192;137257;-74
2021/10/23 06:03:01;;;;;;;9.30;3.60;;;;;;;5.97;70.18;99950.30;113740;1193;99052;-75
2021/10/23 06:05:48;;;;;;;8.30;2.80;;;;;;;5.96;70.17;99954.65;114586;1192;140516;-75
2021/10/23 06:08:35;;;;;;;6.90;2.50;;;;;;;5.95;70.31;99965.19;115077;1192;112209;-75
2021/10/23 06:11:22;;;;;;;6.60;2.80;;;;;;;5.95;70.27;99974.51;114685;1192;137645;-75
2021/10/23 06:14:09;;;;;;;4.20;2.50;;;;;;;5.96;70.60;99975.52;115080;1192;108927;-74
2021/10/23 06:16:56;;;;;;;7.50;2.60;;;;;;;5.98;70.69;99978.42;114925;1192;138504;-75
2021/10/23 06:19:42;;;;;;;8.30;3.10;;;;;;;6.01;70.72;99976.29;115109;1192;95742;-75
2021/10/23 06:22:29;;;;;;;8.80;3.40;;;;;;;6.03;70.62;99985.20;114775;1193;137549;-75
2021/10/23 06:25:17;;;;;;;7.00;2.80;;;;;;;6.06;70.73;99991.20;114856;1192;108473;-75
2021/10/23 06:28:04;;;;;;;11.40;2.80;;;;;;;6.04;70.41;99999.35;114943;1192;137982;-75
2021/10/23 06:30:51;;;;;;;7.00;2.40;;;;;;;6.06;70.54;99988.79;114825;1193;95873;-75
2021/10/23 06:33:38;;;;;;;7.80;3.20;;;;;;;6.08;70.44;100002.22;114938;1192;137644;-67
2021/10/23 06:36:25;;;;;;;5.80;2.90;;;;;;;6.11;70.46;100009.43;115114;1192;112109;-75
2021/10/23 06:39:12;;;;;;;6.40;3.10;;;;;;;6.12;70.48;100009.08;115079;1192;108535;-74
2021/10/23 06:41:58;;;;;;;6.60;2.90;;;;;;;6.14;70.31;100015.27;114942;1192;137003;-74
2021/10/23 06:44:45;;;;;;;6.90;3.00;;;;;;;6.18;70.46;100014.65;115102;1192;95795;-74
2021/10/23 06:47:31;;;;;;;7.80;2.50;;;;;;;6.27;70.11;100020.52;115010;1192;137493;-74
2021/10/23 06:50:18;;;;;;;7.80;2.80;;;;;;;6.41;70.05;100016.28;114832;1192;111904;-75
2021/10/23 06:53:04;;;;;;;8.80;2.90;;;;;;;6.50;69.83;100015.96;114987;1192;137599;-75
2021/10/23 06:55:52;;;;;;;4.80;2.30;;;;;;;6.58;69.69;100017.67;115049;1192;108210;-75
2021/10/23 06:58:38;;;;;;;7.30;2.60;;;;;;;6.69;69.58;100017.14;114913;1192;138870;-75
2021/10/23 07:01:25;;;;;;;7.10;2.80;;;;;;;6.73;69.21;100023.29;114865;1192;95913;-74
2021/10/23 07:04:12;;;;;;;7.50;2.70;;;;;;;6.74;69.14;100021.87;115038;1192;137338;-75
2021/10/23 07:06:59;;;;;;;10.30;3.10;;;;;;;6.76;69.02;100025.45;115046;1192;108780;-75
2021/10/23 07:09:46;;;;;;;12.20;3.60;;;;;;;6.79;68.99;100031.95;114965;1192;137803;-74
2021/10/23 07:12:33;;;;;;;7.80;3.00;;;;;;;6.87;69.10;100032.33;114821;1193;95756;-74
2021/10/23 07:15:19;;;;;;;4.90;2.40;;;;;;;6.93;68.83;100032.88;114784;1193;95872;-75
2021/10/23 07:18:06;;;;;;;5.50;2.30;;;;;;;6.90;68.70;100038.13;114777;1193;138399;-75
2021/10/23 07:20:53;;;;;;;6.40;2.50;;;;;;;6.85;68.52;100037.02;114755;1193;107496;-75
2021/10/23 07:23:40;;;;;;;7.00;2.50;;;;;;;6.86;68.72;100038.22;114729;1193;138223;-75
2021/10/23 07:26:26;;;;;;;10.20;2.50;;;;;;;6.85;68.76;100049.14;114839;1193;95836;-74
2021/10/23 07:29:13;;;;;;;7.70;2.30;;;;;;;6.79;68.66;100052.87;114736;1193;139063;-75
2021/10/23 07:32:00;;;;;;;7.00;2.30;;;;;;;6.77;68.57;100060.00;114843;1193;113032;-75
2021/10/23 07:34:47;;;;;;;10.80;2.20;;;;;;;6.77;68.54;100062.77;114778;1193;137500;-75
2021/10/23 07:37:34;;;;;;;8.30;3.10;;;;;;;6.74;68.54;100067.31;114897;1193;109543;-75
2021/10/23 07:40:22;;;;;;;11.90;3.20;;;;;;;6.73;68.57;100077.71;114675;1193;138127;-75
2021/10/23 07:43:10;;;;;;;7.50;2.60;;;;;;;6.69;68.94;100073.81;114504;1193;95789;-74
2021/10/23 07:45:57;;;;;;;7.10;2.20;;;;;;;6.65;68.85;100080.96;113715;1193;138064;-74
2021/10/23 07:48:44;;;;;;;11.80;2.90;;;;;;;6.63;68.72;100078.40;113429;1193;108568;-74
2021/10/23 07:51:33;;;;;;;7.60;2.70;;;;;;;6.62;68.92;100083.23;113382;1193;107053;-76
2021/10/23 07:54:20;;;;;;;8.80;2.80;;;;;;;6.62;69.12;100086.02;114739;1193;137992;-76
2021/10/23 07:57:07;;;;;;;7.90;2.60;;;;;;;6.60;69.05;100084.85;114853;1193;95950;-73
2021/10/23 07:59:53;;;;;;;8.90;2.40;;;;;;;6.61;69.12;100081.36;113435;1193;137915;-75
2021/10/23 08:03:04;;;;;;;7.50;2.80;;;;;;;6.69;68.98;100085.57;113426;1193;108628;-76
2021/10/23 08:05:51;;;;;;;6.80;2.80;;;;;;;6.75;69.18;100082.31;113315;1193;137418;-74
2021/10/23 08:08:37;;;;;;;7.50;2.70;;;;;;;6.80;69.01;100084.13;113435;1193;97550;-74
2021/10/23 08:11:25;;;;;;;6.90;2.60;;;;;;;6.85;69.15;100085.06;113290;1193;137543;-74
2021/10/23 08:14:13;;;;;;;8.90;2.70;;;;;;;6.90;69.05;100087.55;114931;1192;112111;-75
2021/10/23 08:17:00;;;;;;;9.50;2.90;;;;;;;6.92;69.11;100096.01;114896;1192;137666;-73
2021/10/23 08:19:47;;;;;;;7.80;2.80;;;;;;;6.94;69.26;100102.00;114837;1193;108461;-75
2021/10/23 08:22:33;;;;;;;12.30;3.10;;;;;;;6.97;69.06;100104.70;115014;1192;138017;-75
2021/10/23 08:25:20;;;;;;;12.10;3.60;;;;;;;7.00;69.09;100112.08;115130;1192;95787;-74
2021/10/23 08:28:07;;;;;;;12.30;2.80;;;;;;;6.98;68.91;100119.20;114846;1193;138554;-74
2021/10/23 08:30:54;;;;;;;8.00;3.10;;;;;;;6.97;68.89;100122.50;115104;1192;107254;-75
2021/10/23 08:33:41;;;;;;;6.80;2.70;;;;;;;7.04;68.75;100131.02;115059;1192;107492;-75
2021/10/23 08:36:29;;;;;;;9.20;2.80;;;;;;;7.07;68.49;100132.69;114945;1192;137897;-75
2021/10/23 08:39:16;;;;;;;10.10;2.50;;;;;;;7.10;68.48;100137.11;114852;1192;95912;-74
2021/10/23 08:42:03;;;;;;;8.70;2.50;;;;;;;7.12;68.27;100140.02;114693;1193;138205;-74
2021/10/23 08:44:52;;;;;;;13.10;2.60;;;;;;;7.11;68.11;100134.86;114983;1192;107774;-74
2021/10/23 08:47:40;;;;;;;11.90;2.70;;;;;;;7.07;67.85;100142.90;114686;1193;138368;-75
2021/10/23 08:50:26;;;;;;;;;;;;;;;7.06;68.06;100144.48;115135;1192;96082;-73
2021/10/23 08:53:14;;;;;;;11.10;2.70;;;;;;;7.04;68.26;100147.80;115016;1192;124545;-75
2021/10/23 08:56:01;;;;;;;8.30;3.00;;;;;;;7.04;68.24;100149.36;114906;1192;112121;-75
2021/10/23 08:58:48;;;;;;;10.10;2.50;;;;;;;7.01;68.25;100155.80;115018;1192;137667;-75
2021/10/23 09:01:35;;;;;;;8.30;2.50;;;;;;;7.01;68.31;100144.23;115011;1192;108601;-75
2021/10/23 09:04:22;;;;;;;10.00;3.10;;;;;;;7.01;68.26;100146.48;114938;1184;138203;-75
2021/10/23 09:07:10;;;;;;;9.50;2.80;;;;;;;7.08;68.24;100155.84;115008;1192;95438;-75
2021/10/23 09:10:00;;;;;;;9.00;2.80;;;;;;;7.13;68.15;100157.63;115070;1192;112854;-75
2021/10/23 09:13:01;;;;;;;6.80;2.50;;;;;;;7.21;68.01;100161.81;114953;1192;137742;-75
2021/10/23 09:15:49;;;;;;;8.70;3.30;;;;;;;7.27;67.65;100162.89;115106;1192;108606;-75
2021/10/23 09:18:50;;;;;;;8.20;2.60;;;;;;;7.29;67.62;100165.27;114967;1192;137214;-75
2021/10/23 09:21:39;;;;;;;12.60;3.00;;;;;;;7.27;67.34;100171.89;114978;1192;95681;-74
2021/10/23 09:24:26;;;;;;;12.20;2.80;;;;;;;7.25;67.28;100177.63;114918;1192;137737;-75
2021/10/23 09:27:17;;;;;;;11.40;2.80;;;;;;;7.26;67.37;100185.41;114226;1193;107675;-74
2021/10/23 09:30:12;;;;;;;12.60;3.10;;;;;;;7.29;67.31;100192.60;113631;1193;137943;-74
2021/10/23 09:33:08;;;;;;;10.20;3.50;;;;;;;7.30;67.27;100195.35;113938;1193;97735;-75
2021/10/23 09:36:02;;;;;;;9.60;2.80;;;;;;;7.27;67.35;100201.27;114721;1192;137495;-74
2021/10/23 09:38:49;;;;;;;8.40;2.70;;;;;;;7.30;67.31;100205.56;114777;1193;111311;-75
2021/10/23 09:41:36;;;;;;;12.40;3.30;;;;;;;7.32;67.44;100210.70;114470;1192;138719;-75
2021/10/23 09:44:22;;;;;;;11.40;2.80;;;;;;;7.37;67.38;100208.89;114538;1192;108558;-74
2021/10/23 09:47:09;;;;;;;9.60;3.30;;;;;;;7.40;66.94;100203.82;114693;1193;141112;-74
2021/10/23 09:50:20;;;;;;;8.90;3.50;;;;;;;7.43;66.97;100204.27;114942;1192;96688;-75
2021/10/23 09:53:09;;;;;;;10.60;3.20;;;;;;;7.50;66.94;100203.77;114829;1192;139160;-74
2021/10/23 09:55:55;;;;;;;11.80;3.00;;;;;;;7.60;66.54;100201.67;113336;1193;108453;-74
2021/10/23 09:58:57;;;;;;;10.70;3.60;;;;;;;7.72;66.28;100203.66;113509;1192;138197;-74
2021/10/23 10:01:44;;;;;;;8.70;2.80;;;;;;;7.83;65.83;100203.94;113638;1192;97495;-75
2021/10/23 10:04:33;;;;;;;10.80;3.40;;;;;;;8.01;65.64;100206.84;114811;1192;137421;-74
2021/10/23 10:07:20;;;;;;;11.00;3.10;;;;;;;8.17;65.29;100210.80;114987;1192;112413;-74
2021/10/23 10:10:07;;;;;;;11.90;2.90;;;;;;;8.28;65.13;100213.15;114962;1192;108514;-74
2021/10/23 10:12:54;;;;;;;9.40;3.10;;;;;;;8.35;64.55;100200.02;114866;1192;137564;-75
2021/10/23 10:15:47;;;;;;;8.70;3.00;;;;;;;8.39;63.87;100195.95;114964;1191;96152;-74
2021/10/23 10:18:34;;;;;;;9.70;3.30;;;;;;;8.39;63.89;100213.42;114825;1192;137390;-74
2021/10/23 10:21:21;;;;;;;;;;;;;;;8.39;63.90;100217.76;115001;1192;111279;-73
2021/10/23 10:24:23;;;;;;;6.70;2.30;;;;;;;8.35;63.62;100215.96;114657;1192;125784;-74
2021/10/23 10:27:11;;;;;;;10.00;2.90;;;;;;;8.29;63.47;100225.11;114820;1192;107594;-75
2021/10/23 10:30:00;;;;;;;;;;;;;;;8.23;63.64;100226.25;114101;1192;137531;-74
2021/10/23 10:32:46;;;;;;;11.40;3.10;;;;;;;8.21;63.73;100231.48;114990;1192;95790;-74
2021/10/23 10:39:22;;;;;;;10.80;3.40;;;;;;;8.20;63.91;100235.33;114995;1192;108534;-74
2021/10/23 10:45:22;;;;;;;11.20;3.30;;;;;;;8.28;63.84;100243.30;114714;1184;95921;-74
2021/10/23 10:48:25;;;;;;;10.00;2.60;;;;;;;8.42;63.75;100248.19;114952;1192;137872;-75
2021/10/23 10:51:17;;;;;;;8.40;2.90;;;;;;;8.71;63.63;100251.98;114641;1192;112340;-74
2021/10/23 10:54:05;;;;;;;10.40;3.20;;;;;;;8.93;63.17;100254.58;113330;1193;137963;-73
2021/10/23 10:56:52;;;;;;;11.10;3.20;;;;;;;8.97;62.68;100258.98;114677;1193;107468;-74
2021/10/23 10:59:55;;;;;;;7.40;3.30;;;;;;;8.92;62.49;100261.89;113293;1193;137973;-74
2021/10/23 11:02:42;;;;;;;11.40;3.60;;;;;;;8.85;62.58;100264.15;113416;1193;97723;-73
2021/10/23 11:05:30;;;;;;;13.00;3.60;;;;;;;8.81;62.52;100267.55;113687;1193;137357;-73
2021/10/23 11:08:17;;;;;;;;;;;;;;;8.75;62.55;100266.12;113729;1193;108981;-73
2021/10/23 11:11:05;;;;;;;14.00;3.40;;;;;;;8.67;62.47;100269.27;113779;1192;124418;-74
2021/10/23 11:14:00;;;;;;;13.30;3.50;;;;;;;8.64;62.64;100268.30;113836;1192;97499;-75
2021/10/23 11:16:51;;;;;;;11.90;3.40;;;;;;;8.59;62.57;100283.15;113236;1193;137738;-75
2021/10/23 11:19:41;;;;;;;8.50;3.20;;;;;;;8.50;62.63;100280.23;113503;1192;112345;-75
2021/10/23 11:22:30;;;;;;;8.90;3.40;;;;;;;8.43;62.80;100280.91;113499;1192;107569;-75
2021/10/23 11:25:17;;;;;;;10.60;3.30;;;;;;;8.41;62.86;100285.80;114900;1192;107695;-75
2021/10/23 11:28:13;;;;;;;11.60;3.90;;;;;;;8.40;63.16;100282.88;114728;1192;95966;-76
2021/10/23 11:31:00;;;;;;;17.20;3.80;;;;;;;8.39;63.38;100280.33;114801;1184;138315;-75
2021/10/23 11:33:46;;;;;;;14.10;3.80;;;;;;;8.35;63.37;100293.40;114961;1192;112445;-75
2021/10/23 11:36:33;;;;;;;10.50;3.70;;;;;;;8.33;63.84;100293.77;114861;1192;138027;-75
2021/10/23 11:39:20;;;;;;;11.00;3.50;;;;;;;8.27;64.38;100280.21;114723;1192;107365;-76
2021/10/23 11:42:27;;;;;;;11.10;3.30;;;;;;;8.23;64.43;100297.27;114772;1192;139058;-75
2021/10/23 11:45:27;;;;;;;10.70;3.40;;;;;;;8.24;64.69;100301.73;114951;1192;95798;-75
2021/10/23 11:48:20;;;;;;;12.60;3.60;;;;;;;8.25;64.89;100309.52;114792;1192;136438;-73
2021/10/23 11:51:07;;;;;;;11.90;3.70;;;;;;;8.22;65.26;100308.19;114903;1192;109213;-73
2021/10/23 11:53:59;;;;;;;10.60;3.30;;;;;;;8.22;65.25;100308.20;114769;1192;138556;-74
2021/10/23 11:56:49;;;;;;;11.00;3.40;;;;;;;8.19;65.24;100313.64;114858;1192;96410;-74
2021/10/23 11:59:37;;;;;;;10.70;3.40;;;;;;;8.20;64.99;100317.77;114780;1192;137980;-74
2021/10/23 12:02:23;;;;;;;10.90;3.30;;;;;;;8.24;64.92;100319.07;114686;1193;112080;-75
2021/10/23 12:05:44;;;;;;;12.40;3.30;;;;;;;8.30;64.75;100327.44;114790;1192;138145;-74
2021/10/23 12:08:31;;;;;;;11.60;3.30;;;;;;;8.34;64.59;100324.95;114853;1192;108635;-75
2021/10/23 12:11:26;;;;;;;9.10;3.40;;;;;;;8.31;64.59;100325.86;114811;1192;138053;-74
2021/10/23 12:14:15;;;;;;;9.10;3.20;;;;;;;8.25;64.72;100337.94;114889;1192;95886;-75
2021/10/23 12:17:03;;;;;;;10.90;3.30;;;;;;;8.18;64.91;100341.70;114612;1193;138438;-74
2021/10/23 12:19:49;;;;;;;7.60;3.00;;;;;;;8.17;65.09;100341.05;114707;1193;107630;-74
2021/10/23 12:22:39;;;;;;;9.00;3.80;;;;;;;8.13;65.17;100347.20;114866;1192;108539;-74
2021/10/23 12:25:29;;;;;;;13.50;4.20;;;;;;;8.02;65.35;100350.02;114803;1192;137586;-75
2021/10/23 12:28:16;;;;;;;15.90;4.00;;;;;;;7.96;65.70;100349.80;114995;1192;96745;-75
2021/10/23 12:31:03;;;;;;;10.80;3.80;;;;;;;7.90;65.79;100354.92;114808;1192;138179;-75
2021/10/23 12:34:03;;;;;;;15.30;3.90;;;;;;;7.86;66.01;100354.48;114902;1192;107651;-74
2021/10/23 12:36:55;;;;;;;9.70;3.60;;;;;;;7.84;66.30;100365.42;114747;1192;139578;-74
2021/10/23 12:39:42;;;;;;;10.80;4.00;;;;;;;7.83;66.47;100360.08;114839;1192;96577;-75
2021/10/23 12:42:29;;;;;;;12.20;4.00;;;;;;;7.84;66.50;100359.88;114805;1192;136470;-75
2021/10/23 12:45:23;;;;;;;9.30;3.10;;;;;;;7.85;66.54;100368.33;114972;1192;112128;-75
2021/10/23 12:48:15;;;;;;;12.40;3.00;;;;;;;7.92;66.69;100371.70;114835;1192;138555;-75
2021/10/23 12:51:02;;;;;;;9.80;3.20;;;;;;;8.00;66.65;100372.90;114841;1193;106795;-74
2021/10/23 12:53:48;;;;;;;12.30;3.60;;;;;;;8.10;66.49;100371.34;114509;1193;136837;-75
2021/10/23 12:56:35;;;;;;;10.80;3.60;;;;;;;8.17;66.28;100373.45;114932;1192;95673;-74
2021/10/23 12:59:22;;;;;;;10.10;3.70;;;;;;;8.17;66.00;100376.71;114847;1193;138649;-75
2021/10/23 13:02:09;;;;;;;12.40;3.70;;;;;;;8.20;65.95;100376.49;114906;1192;108573;-75
2021/10/23 13:04:55;;;;;;;12.10;4.00;;;;;;;8.20;66.12;100375.98;114868;1192;110640;-74